Time;durP1;ratioP1;P1;durP2;ratioP2;P2;SDS_P1;SDS_P2;PMS_P1;PMS_P2;Temp;Humidity;BMP_temperature;BMP_pressure;BME280_temperature;BME280_humidity;BME280_pressure;Samples;Min_cycle;Max_cycle;Signal;HPM_P1;HPM_P2
2023/01/27 00:00:56;;;;;;;11.73;7.07;;;;;;;;;;5045377;28;20109;-48
2023/01/27 00:03:22;;;;;;;14.30;7.50;;;;;;;;;;5044583;28;20032;-46
2023/01/27 00:05:48;;;;;;;12.02;6.60;;;;;;;;;;5045591;28;20059;-48
2023/01/27 00:08:14;;;;;;;9.88;6.38;;;;;;;;;;5045495;28;20459;-47
2023/01/27 00:10:40;;;;;;;10.05;6.20;;;;;;;;;;5045953;28;20021;-47
2023/01/27 00:13:27;;;;;;;11.23;7.22;;;;;;;;;;5044928;28;20029;-46
2023/01/27 00:15:54;;;;;;;12.45;7.35;;;;;;;;;;5045234;28;20071;-47
2023/01/27 00:18:22;;;;;;;11.35;6.80;;;;;;;;;;5044530;28;20021;-47
2023/01/27 00:26:18;;;;;;;11.95;7.43;;;;;;;;;;5044834;28;20073;-47
2023/01/27 00:28:45;;;;;;;12.10;7.20;;;;;;;;;;5045026;28;20728;-46
2023/01/27 00:34:00;;;;;;;11.82;7.03;;;;;;;;;;5044537;28;20048;-50
2023/01/27 00:36:27;;;;;;;12.05;7.05;;;;;;;;;;5045043;28;20024;-47
2023/01/27 00:38:53;;;;;;;10.10;6.65;;;;;;;;;;5045014;28;20025;-47
2023/01/27 00:41:22;;;;;;;12.18;7.90;;;;;;;;;;5044558;28;20029;-49
2023/01/27 00:43:50;;;;;;;11.98;7.10;;;;;;;;;;5044589;28;20017;-47
2023/01/27 00:46:17;;;;;;;11.93;6.70;;;;;;;;;;5044367;28;20032;-47
2023/01/27 00:48:43;;;;;;;10.77;6.65;;;;;;;;;;5044846;28;20021;-46
2023/01/27 00:51:09;;;;;;;10.07;6.53;;;;;;;;;;5045160;28;20024;-48
2023/01/27 00:53:35;;;;;;;10.15;6.43;;;;;;;;;;5044711;28;20099;-47
2023/01/27 00:56:03;;;;;;;9.75;6.63;;;;;;;;;;5044317;28;20033;-47
2023/01/27 00:58:29;;;;;;;11.35;7.20;;;;;;;;;;5044602;28;20071;-47
2023/01/27 01:00:58;;;;;;;10.65;6.55;;;;;;;;;;5044687;28;20029;-49
2023/01/27 01:03:24;;;;;;;10.20;6.45;;;;;;;;;;5046508;28;20028;-46
2023/01/27 06:13:27;;;;;;;17.70;9.98;;;;;;;;;;5044135;28;20048;-47
2023/01/27 06:15:54;;;;;;;17.75;10.32;;;;;;;;;;5046389;28;20400;-49
2023/01/27 06:18:21;;;;;;;18.83;10.80;;;;;;;;;;5046844;28;20435;-47
2023/01/27 06:20:47;;;;;;;22.83;12.73;;;;;;;;;;5058241;28;20367;-46
2023/01/27 06:23:15;;;;;;;23.77;13.43;;;;;;;;;;5066397;28;20388;-47
2023/01/27 06:25:43;;;;;;;23.25;12.38;;;;;;;;;;5050095;28;20616;-46
2023/01/27 06:28:09;;;;;;;25.67;13.98;;;;;;;;;;5058190;28;20079;-49
2023/01/27 06:30:37;;;;;;;25.58;15.35;;;;;;;;;;5070201;28;20016;-47
2023/01/27 06:33:04;;;;;;;27.42;15.65;;;;;;;;;;5066628;28;20427;-47
2023/01/27 06:35:31;;;;;;;25.48;14.30;;;;;;;;;;5063179;28;20036;-46
2023/01/27 06:37:58;;;;;;;23.58;12.93;;;;;;;;;;5053020;28;20107;-48
2023/01/27 06:40:27;;;;;;;21.75;12.95;;;;;;;;;;5063250;28;20034;-50
2023/01/27 06:42:53;;;;;;;23.33;12.75;;;;;;;;;;5064668;28;20021;-48
2023/01/27 06:45:20;;;;;;;19.42;11.73;;;;;;;;;;5052512;28;20024;-46
2023/01/27 06:47:46;;;;;;;16.88;10.57;;;;;;;;;;5065069;28;20471;-49
2023/01/27 06:50:12;;;;;;;19.38;11.35;;;;;;;;;;5065400;28;20606;-47
2023/01/27 06:52:38;;;;;;;21.77;12.73;;;;;;;;;;5052904;28;20061;-47
2023/01/27 06:55:04;;;;;;;19.58;12.10;;;;;;;;;;5060339;28;20024;-47
2023/01/27 06:57:30;;;;;;;19.55;11.38;;;;;;;;;;5066584;28;20025;-50
2023/01/27 06:59:56;;;;;;;16.67;10.63;;;;;;;;;;5052376;28;20053;-46
2023/01/27 07:02:22;;;;;;;17.67;10.82;;;;;;;;;;5063759;28;20025;-48
2023/01/27 07:04:48;;;;;;;17.55;10.82;;;;;;;;;;5061086;28;20029;-47
2023/01/27 07:07:14;;;;;;;17.73;10.68;;;;;;;;;;5066848;28;20162;-47
2023/01/27 07:09:40;;;;;;;17.40;10.70;;;;;;;;;;5057325;28;20050;-49
2023/01/27 07:12:06;;;;;;;17.23;10.93;;;;;;;;;;5060260;28;20032;-47
2023/01/27 07:14:33;;;;;;;17.55;10.50;;;;;;;;;;5064181;28;20039;-47
2023/01/27 07:16:59;;;;;;;18.08;10.90;;;;;;;;;;5051876;28;20033;-48
2023/01/27 07:19:25;;;;;;;18.45;10.77;;;;;;;;;;5050911;28;20032;-47
2023/01/27 07:21:51;;;;;;;21.13;12.65;;;;;;;;;;5050588;28;20053;-48
2023/01/27 07:24:18;;;;;;;20.42;12.30;;;;;;;;;;5057627;28;20038;-48
2023/01/27 07:26:46;;;;;;;20.98;11.80;;;;;;;;;;5062388;28;20037;-46
2023/01/27 07:29:12;;;;;;;21.17;12.68;;;;;;;;;;5050371;28;20033;-47
2023/01/27 07:31:38;;;;;;;18.95;11.85;;;;;;;;;;5061053;28;20518;-47
2023/01/27 07:34:04;;;;;;;18.08;11.65;;;;;;;;;;5055998;28;20029;-47
2023/01/27 07:36:30;;;;;;;16.23;10.23;;;;;;;;;;5050062;28;20106;-49
2023/01/27 07:38:56;;;;;;;16.60;9.68;;;;;;;;;;5069608;28;20056;-49
2023/01/27 07:41:24;;;;;;;18.42;10.10;;;;;;;;;;5050166;28;20032;-47
2023/01/27 07:43:50;;;;;;;14.48;9.15;;;;;;;;;;5048369;28;20049;-47
2023/01/27 07:46:16;;;;;;;17.40;10.63;;;;;;;;;;5049016;28;20095;-46
2023/01/27 07:48:43;;;;;;;18.95;11.10;;;;;;;;;;5061693;28;20086;-47
2023/01/27 07:51:13;;;;;;;16.08;9.88;;;;;;;;;;5052426;28;20044;-47
2023/01/27 07:53:39;;;;;;;17.25;10.32;;;;;;;;;;5047605;28;20021;-47
2023/01/27 07:56:10;;;;;;;18.20;10.35;;;;;;;;;;5055982;28;20028;-47
2023/01/27 07:58:36;;;;;;;16.17;9.95;;;;;;;;;;5067613;28;20059;-50
2023/01/27 08:01:04;;;;;;;15.95;10.45;;;;;;;;;;5066171;28;20029;-49
2023/01/27 08:03:30;;;;;;;17.38;10.25;;;;;;;;;;5057042;28;20020;-47
2023/01/27 08:05:56;;;;;;;16.55;9.88;;;;;;;;;;5057196;28;20452;-48
2023/01/27 08:08:22;;;;;;;17.08;9.82;;;;;;;;;;5046819;28;20032;-48
2023/01/27 08:10:50;;;;;;;19.10;10.77;;;;;;;;;;5054489;28;20043;-48
2023/01/27 08:13:16;;;;;;;18.70;10.93;;;;;;;;;;5050751;28;20503;-47
2023/01/27 08:15:42;;;;;;;22.65;12.07;;;;;;;;;;5036966;28;20574;-48
2023/01/27 08:18:08;;;;;;;22.80;12.40;;;;;;;;;;5049540;28;20531;-47
2023/01/27 08:20:34;;;;;;;21.85;13.20;;;;;;;;;;5044677;28;20029;-47
2023/01/27 08:23:00;;;;;;;22.98;12.63;;;;;;;;;;5048916;28;20567;-48
2023/01/27 08:25:26;;;;;;;19.98;11.48;;;;;;;;;;5049720;28;20080;-49
2023/01/27 08:27:55;;;;;;;19.20;11.50;;;;;;;;;;5051195;28;20052;-49
2023/01/27 08:30:21;;;;;;;16.88;10.32;;;;;;;;;;5067474;28;20068;-47
2023/01/27 08:32:47;;;;;;;18.88;11.18;;;;;;;;;;5052349;28;20033;-48
2023/01/27 08:35:13;;;;;;;18.25;10.45;;;;;;;;;;5049081;28;20615;-49
2023/01/27 08:37:39;;;;;;;16.73;9.88;;;;;;;;;;5046573;28;20381;-49
2023/01/27 08:40:05;;;;;;;18.77;10.63;;;;;;;;;;5027810;28;20036;-46
2023/01/27 08:42:31;;;;;;;19.02;10.98;;;;;;;;;;5027261;28;20032;-47
2023/01/27 08:44:59;;;;;;;20.27;12.30;;;;;;;;;;5048015;28;20565;-46
2023/01/27 08:47:25;;;;;;;17.25;10.30;;;;;;;;;;5047662;28;20396;-48
2023/01/27 08:49:53;;;;;;;16.48;10.30;;;;;;;;;;5059050;28;20039;-48
2023/01/27 08:52:19;;;;;;;16.90;10.20;;;;;;;;;;5047178;28;20055;-48
2023/01/27 08:54:45;;;;;;;18.95;10.25;;;;;;;;;;5060086;28;20029;-47
2023/01/27 08:57:11;;;;;;;16.55;9.25;;;;;;;;;;5050746;28;20056;-48
2023/01/27 08:59:37;;;;;;;16.88;9.57;;;;;;;;;;5057262;28;20093;-47
2023/01/27 09:02:03;;;;;;;15.07;9.70;;;;;;;;;;5061383;28;20521;-46
2023/01/27 09:04:29;;;;;;;14.07;8.98;;;;;;;;;;5056409;28;20128;-46
2023/01/27 09:06:55;;;;;;;16.45;9.52;;;;;;;;;;5045965;28;20021;-47
2023/01/27 09:09:21;;;;;;;14.00;8.80;;;;;;;;;;5065367;28;20031;-48
2023/01/27 09:11:47;;;;;;;14.43;8.82;;;;;;;;;;5065547;28;20032;-48
2023/01/27 09:14:14;;;;;;;13.77;8.60;;;;;;;;;;5065287;28;20593;-46
2023/01/27 09:16:41;;;;;;;14.95;8.60;;;;;;;;;;5065728;28;20017;-46
2023/01/27 09:19:07;;;;;;;14.10;8.35;;;;;;;;;;5053578;28;20454;-47
2023/01/27 09:21:33;;;;;;;12.32;7.68;;;;;;;;;;5045226;28;20021;-46
2023/01/27 09:23:59;;;;;;;14.10;8.38;;;;;;;;;;5045505;28;20025;-48
2023/01/27 09:26:25;;;;;;;12.75;7.40;;;;;;;;;;5045844;28;20013;-47
2023/01/27 09:28:52;;;;;;;11.85;7.35;;;;;;;;;;5046061;28;20439;-47
2023/01/27 09:31:18;;;;;;;10.88;7.18;;;;;;;;;;5053370;28;20025;-47
2023/01/27 09:33:44;;;;;;;11.95;7.75;;;;;;;;;;5051772;28;20115;-46
2023/01/27 09:36:13;;;;;;;11.88;7.20;;;;;;;;;;5064918;28;20063;-49
2023/01/27 09:38:44;;;;;;;13.82;8.27;;;;;;;;;;5059163;28;20020;-50
2023/01/27 09:41:25;;;;;;;12.98;8.00;;;;;;;;;;5052312;28;20346;-48
2023/01/27 09:44:09;;;;;;;13.70;8.00;;;;;;;;;;5044755;28;20025;-47
2023/01/27 09:46:54;;;;;;;16.25;8.98;;;;;;;;;;5045120;28;20021;-47
2023/01/27 09:49:27;;;;;;;12.70;8.02;;;;;;;;;;5048888;28;20029;-48
2023/01/27 09:52:10;;;;;;;11.25;6.90;;;;;;;;;;5044667;28;20066;-46
2023/01/27 09:54:42;;;;;;;11.82;7.32;;;;;;;;;;5056846;28;20033;-50
2023/01/27 09:57:20;;;;;;;12.38;7.15;;;;;;;;;;5058032;28;20032;-50
2023/01/27 09:59:59;;;;;;;11.77;6.75;;;;;;;;;;5047245;28;20070;-50
2023/01/27 10:02:28;;;;;;;10.25;6.40;;;;;;;;;;5051663;28;20032;-47
2023/01/27 10:05:12;;;;;;;13.75;7.63;;;;;;;;;;5063976;28;20067;-51
2023/01/27 10:07:57;;;;;;;11.65;6.78;;;;;;;;;;5054086;28;20036;-47
2023/01/27 10:10:23;;;;;;;;;;;;;;;;;;5060217;28;20040;-47
2023/01/27 10:12:51;;;;;;;10.55;5.95;;;;;;;;;;5049931;28;19917;-48
2023/01/27 10:15:17;;;;;;;11.02;6.22;;;;;;;;;;5049756;28;20064;-46
2023/01/27 10:17:47;;;;;;;8.85;5.78;;;;;;;;;;5050412;28;20029;-51
2023/01/27 10:20:16;;;;;;;11.30;6.38;;;;;;;;;;5050640;28;20086;-48
2023/01/27 10:22:45;;;;;;;8.95;5.70;;;;;;;;;;5050640;28;20079;-50
2023/01/27 10:25:11;;;;;;;12.55;7.13;;;;;;;;;;5050386;28;20025;-47
2023/01/27 10:27:37;;;;;;;10.68;6.45;;;;;;;;;;5053189;28;20087;-50
2023/01/27 10:30:15;;;;;;;13.70;7.85;;;;;;;;;;5053777;28;20053;-48
2023/01/27 10:32:45;;;;;;;11.80;7.45;;;;;;;;;;5064430;28;20035;-47
2023/01/27 10:35:14;;;;;;;12.30;7.40;;;;;;;;;;5065795;28;20738;-47
2023/01/27 10:37:40;;;;;;;12.95;7.90;;;;;;;;;;5050369;28;20024;-48
2023/01/27 10:40:09;;;;;;;14.25;8.25;;;;;;;;;;5053898;28;20025;-51
2023/01/27 10:42:39;;;;;;;16.73;9.80;;;;;;;;;;5066918;28;20024;-47
2023/01/27 10:45:20;;;;;;;11.80;8.10;;;;;;;;;;5054301;28;20055;-47
2023/01/27 10:47:53;;;;;;;12.90;7.88;;;;;;;;;;5059668;28;20029;-48
2023/01/27 10:50:21;;;;;;;13.80;8.52;;;;;;;;;;5059392;28;20492;-47
2023/01/27 10:52:49;;;;;;;9.93;6.72;;;;;;;;;;5049619;28;20519;-46
2023/01/27 10:55:24;;;;;;;9.85;6.25;;;;;;;;;;5049499;28;20469;-49
2023/01/27 10:57:59;;;;;;;9.50;6.30;;;;;;;;;;5049376;28;20017;-47
2023/01/27 11:00:28;;;;;;;10.15;6.65;;;;;;;;;;5057336;28;20024;-47
2023/01/27 11:03:00;;;;;;;10.00;6.65;;;;;;;;;;5068811;28;20036;-48
2023/01/27 11:05:45;;;;;;;10.82;6.82;;;;;;;;;;5069420;28;20063;-47
2023/01/27 11:08:19;;;;;;;11.77;6.60;;;;;;;;;;5049605;28;20041;-47
2023/01/27 11:13:37;;;;;;;11.88;7.13;;;;;;;;;;5037410;28;20049;-49
2023/01/27 11:16:05;;;;;;;10.98;6.68;;;;;;;;;;5049093;28;20033;-46
2023/01/27 11:18:33;;;;;;;10.43;6.53;;;;;;;;;;5049182;28;20096;-47
2023/01/27 11:21:02;;;;;;;11.40;6.65;;;;;;;;;;5049149;28;20531;-45
2023/01/27 11:23:34;;;;;;;10.75;7.10;;;;;;;;;;5048925;28;20036;-48
2023/01/27 11:26:15;;;;;;;10.70;6.75;;;;;;;;;;5048817;28;20095;-49
2023/01/27 11:29:00;;;;;;;13.65;7.80;;;;;;;;;;5049659;28;20086;-46
2023/01/27 11:31:39;;;;;;;11.52;7.65;;;;;;;;;;5048804;28;20033;-46
2023/01/27 11:34:08;;;;;;;14.43;7.60;;;;;;;;;;5049312;28;20526;-46
2023/01/27 11:36:34;;;;;;;14.27;8.50;;;;;;;;;;5050422;28;20021;-46
2023/01/27 11:39:03;;;;;;;13.82;8.07;;;;;;;;;;5068556;28;20507;-48
2023/01/27 11:41:31;;;;;;;14.95;8.35;;;;;;;;;;5068435;28;20020;-48
2023/01/27 11:44:00;;;;;;;17.23;9.10;;;;;;;;;;5057375;28;20033;-49
2023/01/27 11:46:29;;;;;;;15.45;9.10;;;;;;;;;;5062856;28;20097;-47
2023/01/27 11:48:57;;;;;;;15.38;8.68;;;;;;;;;;5066727;28;20407;-46
2023/01/27 11:51:24;;;;;;;13.65;8.50;;;;;;;;;;5054037;28;20429;-46
2023/01/27 11:53:53;;;;;;;17.38;9.57;;;;;;;;;;5046596;28;20056;-47
2023/01/27 11:56:19;;;;;;;20.27;11.25;;;;;;;;;;5049927;28;20028;-46
2023/01/27 11:58:57;;;;;;;18.48;9.50;;;;;;;;;;5046688;28;20021;-47
2023/01/27 12:01:24;;;;;;;16.65;8.40;;;;;;;;;;5046630;28;20104;-45
2023/01/27 12:03:56;;;;;;;17.05;8.23;;;;;;;;;;5048434;28;20228;-46
2023/01/27 12:06:25;;;;;;;13.02;7.45;;;;;;;;;;5026790;28;20623;-46
2023/01/27 12:08:51;;;;;;;11.13;6.75;;;;;;;;;;5043437;28;20020;-47
2023/01/27 12:11:17;;;;;;;15.32;8.10;;;;;;;;;;5047360;28;20036;-47
2023/01/27 12:13:53;;;;;;;13.77;8.02;;;;;;;;;;5046063;28;20033;-48
2023/01/27 12:16:20;;;;;;;12.15;6.68;;;;;;;;;;5046578;28;20632;-49
2023/01/27 12:18:58;;;;;;;12.45;6.95;;;;;;;;;;5046526;28;20163;-47
2023/01/27 12:21:40;;;;;;;12.68;6.68;;;;;;;;;;5047131;28;20070;-49
2023/01/27 12:24:13;;;;;;;12.52;6.38;;;;;;;;;;5046006;28;20134;-46
2023/01/27 12:26:40;;;;;;;13.45;6.90;;;;;;;;;;5046277;28;20029;-49
2023/01/27 12:29:26;;;;;;;15.73;8.55;;;;;;;;;;5046461;28;20102;-49
2023/01/27 12:31:53;;;;;;;16.17;8.60;;;;;;;;;;5046656;28;20017;-48
2023/01/27 12:34:22;;;;;;;18.42;9.10;;;;;;;;;;5045854;28;20035;-46
2023/01/27 12:36:49;;;;;;;17.88;8.80;;;;;;;;;;5046190;28;20396;-46
2023/01/27 12:39:41;;;;;;;18.98;9.63;;;;;;;;;;5045896;28;20025;-46
2023/01/27 12:42:27;;;;;;;18.40;8.95;;;;;;;;;;5042303;28;20661;-47
2023/01/27 12:44:53;;;;;;;14.80;8.13;;;;;;;;;;5005574;28;20087;-47
2023/01/27 12:47:26;;;;;;;13.90;7.13;;;;;;;;;;5045750;28;20028;-46
2023/01/27 12:50:12;;;;;;;9.88;6.20;;;;;;;;;;5046756;28;20082;-47
2023/01/27 12:52:38;;;;;;;13.43;7.50;;;;;;;;;;5045625;28;20068;-46
2023/01/27 12:55:04;;;;;;;12.88;7.07;;;;;;;;;;5045402;28;20029;-46
2023/01/27 12:57:32;;;;;;;12.68;7.25;;;;;;;;;;5045554;28;20104;-47
2023/01/27 12:59:58;;;;;;;11.70;6.78;;;;;;;;;;5045855;28;20087;-48
2023/01/27 13:02:32;;;;;;;12.82;7.28;;;;;;;;;;5046281;28;20381;-45
2023/01/27 13:04:58;;;;;;;;;;;;;;;;;;5046131;28;20044;-50
2023/01/27 13:07:26;;;;;;;14.95;7.70;;;;;;;;;;5046180;28;19909;-46
2023/01/27 13:09:56;;;;;;;14.27;7.78;;;;;;;;;;5046034;28;20275;-46
2023/01/27 13:12:23;;;;;;;12.48;7.28;;;;;;;;;;5045806;28;20029;-46
2023/01/27 13:14:51;;;;;;;13.05;6.63;;;;;;;;;;5045269;28;20115;-50
2023/01/27 13:17:36;;;;;;;9.52;5.93;;;;;;;;;;5045698;28;20040;-48
2023/01/27 13:20:16;;;;;;;10.00;5.55;;;;;;;;;;5045748;28;20021;-48
2023/01/27 13:22:47;;;;;;;10.43;6.10;;;;;;;;;;5045253;28;20025;-46
2023/01/27 13:25:16;;;;;;;8.75;5.57;;;;;;;;;;5045012;28;20122;-47
2023/01/27 13:27:43;;;;;;;8.55;4.97;;;;;;;;;;5045119;28;20036;-50
2023/01/27 13:30:12;;;;;;;9.30;5.45;;;;;;;;;;5045051;28;20028;-45
2023/01/27 13:32:39;;;;;;;7.88;4.55;;;;;;;;;;5045048;28;20032;-48
2023/01/27 13:35:20;;;;;;;7.35;4.43;;;;;;;;;;5044428;28;20029;-45
2023/01/27 13:37:50;;;;;;;6.82;4.07;;;;;;;;;;5045406;28;20115;-48
2023/01/27 13:40:55;;;;;;;7.82;4.95;;;;;;;;;;5044926;28;20025;-47
2023/01/27 13:43:26;;;;;;;6.97;4.55;;;;;;;;;;4964141;28;20556;-46
2023/01/27 13:46:04;;;;;;;6.47;4.22;;;;;;;;;;4964345;28;20110;-46
2023/01/27 13:48:47;;;;;;;5.90;4.18;;;;;;;;;;5011176;28;20539;-46
2023/01/27 13:51:15;;;;;;;8.53;5.17;;;;;;;;;;5045056;28;20519;-46
2023/01/27 13:53:41;;;;;;;7.57;4.82;;;;;;;;;;5044585;28;20255;-48
2023/01/27 13:56:12;;;;;;;7.00;4.43;;;;;;;;;;5044768;28;20029;-47
2023/01/27 13:58:50;;;;;;;8.07;4.75;;;;;;;;;;5044733;28;20403;-47
2023/01/27 14:01:19;;;;;;;7.93;4.82;;;;;;;;;;5045021;28;20033;-49
2023/01/27 14:03:51;;;;;;;7.30;4.75;;;;;;;;;;5044693;28;20070;-46
2023/01/27 14:06:26;;;;;;;8.43;5.15;;;;;;;;;;5044625;28;20400;-50
2023/01/27 14:08:57;;;;;;;8.48;5.85;;;;;;;;;;5045009;28;20060;-46
2023/01/27 14:11:34;;;;;;;7.20;4.65;;;;;;;;;;5045165;28;20029;-47
2023/01/27 14:14:12;;;;;;;7.70;4.47;;;;;;;;;;5044490;28;20537;-47
2023/01/27 14:16:41;;;;;;;7.30;4.60;;;;;;;;;;5044626;28;20029;-49
2023/01/27 14:19:25;;;;;;;8.77;5.60;;;;;;;;;;5044837;28;20025;-48
2023/01/27 14:22:10;;;;;;;7.53;5.35;;;;;;;;;;5044488;28;20602;-47
2023/01/27 14:24:40;;;;;;;9.98;5.95;;;;;;;;;;5044506;28;20029;-49
2023/01/27 14:27:05;;;;;;;9.10;5.90;;;;;;;;;;5044912;28;20055;-46
2023/01/27 14:29:54;;;;;;;11.38;6.78;;;;;;;;;;5044700;28;20540;-47
2023/01/27 14:32:39;;;;;;;10.65;5.53;;;;;;;;;;5044531;28;20029;-47
2023/01/27 14:35:24;;;;;;;8.63;5.57;;;;;;;;;;5044359;28;20084;-49
2023/01/27 14:37:56;;;;;;;8.27;5.03;;;;;;;;;;5044316;28;20049;-48
2023/01/27 14:40:34;;;;;;;7.35;4.65;;;;;;;;;;5044719;28;20028;-46
2023/01/27 14:43:05;;;;;;;8.63;5.20;;;;;;;;;;5044282;28;20021;-46
2023/01/27 14:45:35;;;;;;;8.43;4.78;;;;;;;;;;5044620;28;20504;-47
2023/01/27 14:48:14;;;;;;;7.03;4.45;;;;;;;;;;5047235;28;20021;-46
2023/01/27 14:50:40;;;;;;;9.50;6.05;;;;;;;;;;5048120;28;20029;-47
2023/01/27 14:53:07;;;;;;;9.02;5.50;;;;;;;;;;5047620;28;20399;-46
2023/01/27 14:55:45;;;;;;;8.73;5.47;;;;;;;;;;5048249;28;20036;-46
2023/01/27 14:58:10;;;;;;;8.95;5.70;;;;;;;;;;5047600;28;20029;-46
2023/01/27 15:00:55;;;;;;;9.90;6.13;;;;;;;;;;5048159;28;20032;-48
2023/01/27 15:03:40;;;;;;;8.45;5.28;;;;;;;;;;5047902;28;20079;-46
2023/01/27 15:06:12;;;;;;;7.97;5.07;;;;;;;;;;5047586;28;20043;-47
2023/01/27 15:08:53;;;;;;;8.52;5.30;;;;;;;;;;5047510;28;20045;-47
2023/01/27 15:11:25;;;;;;;9.43;5.55;;;;;;;;;;5047893;28;20392;-47
2023/01/27 15:13:51;;;;;;;9.50;5.90;;;;;;;;;;5047544;28;20036;-47
2023/01/27 15:16:35;;;;;;;7.75;5.05;;;;;;;;;;5047558;28;20383;-51
2023/01/27 15:19:01;;;;;;;9.45;5.28;;;;;;;;;;5047645;28;20036;-47
2023/01/27 15:21:30;;;;;;;8.20;5.05;;;;;;;;;;5047681;28;20025;-46
2023/01/27 15:24:16;;;;;;;8.02;5.35;;;;;;;;;;5047941;28;20037;-47
2023/01/27 15:26:42;;;;;;;9.77;5.85;;;;;;;;;;5047313;28;20064;-47
2023/01/27 15:29:13;;;;;;;8.98;5.07;;;;;;;;;;5047322;28;20029;-47
2023/01/27 15:31:39;;;;;;;7.57;4.88;;;;;;;;;;5047302;28;20107;-48
2023/01/27 15:34:14;;;;;;;8.13;5.55;;;;;;;;;;5047200;28;20393;-46
2023/01/27 15:36:58;;;;;;;9.07;5.63;;;;;;;;;;5047275;28;20109;-47
2023/01/27 15:39:24;;;;;;;9.48;5.82;;;;;;;;;;5047761;28;20029;-46
2023/01/27 15:42:02;;;;;;;7.32;5.00;;;;;;;;;;5046974;28;20068;-47
2023/01/27 15:44:29;;;;;;;6.85;4.45;;;;;;;;;;5047056;28;20077;-48
2023/01/27 15:47:20;;;;;;;7.50;5.18;;;;;;;;;;5047621;28;20049;-48
2023/01/27 15:49:48;;;;;;;7.40;4.53;;;;;;;;;;5046891;28;20116;-49
2023/01/27 15:52:20;;;;;;;8.85;5.75;;;;;;;;;;5046917;28;20444;-49
2023/01/27 15:54:49;;;;;;;8.30;4.97;;;;;;;;;;5058415;28;20074;-49
2023/01/27 15:57:41;;;;;;;7.68;5.18;;;;;;;;;;5064688;28;20027;-47
2023/01/27 16:00:21;;;;;;;7.30;5.45;;;;;;;;;;5060094;28;20028;-46
2023/01/27 16:02:52;;;;;;;7.65;4.82;;;;;;;;;;5054993;28;20025;-49
2023/01/27 16:05:37;;;;;;;7.60;4.95;;;;;;;;;;5044114;28;20048;-49
2023/01/27 16:08:04;;;;;;;7.72;5.07;;;;;;;;;;5045272;28;20029;-48
2023/01/27 16:10:33;;;;;;;8.15;4.70;;;;;;;;;;5045396;28;20033;-48
2023/01/27 16:13:14;;;;;;;8.40;4.50;;;;;;;;;;5045391;28;20035;-48
2023/01/27 16:15:41;;;;;;;8.35;4.65;;;;;;;;;;5046097;28;20029;-49
2023/01/27 16:18:07;;;;;;;8.40;4.90;;;;;;;;;;5045961;28;20025;-49
2023/01/27 16:20:53;;;;;;;8.57;5.07;;;;;;;;;;5055286;28;20021;-47
2023/01/27 16:23:35;;;;;;;10.43;5.43;;;;;;;;;;5044801;28;20052;-47
2023/01/27 16:26:15;;;;;;;10.02;6.22;;;;;;;;;;5045248;28;20045;-47
2023/01/27 16:28:43;;;;;;;8.27;5.00;;;;;;;;;;5044954;28;20033;-49
2023/01/27 16:31:17;;;;;;;10.60;5.90;;;;;;;;;;5045166;28;20035;-50
2023/01/27 16:33:48;;;;;;;10.05;6.00;;;;;;;;;;5033379;28;20029;-48
2023/01/27 16:36:23;;;;;;;9.60;5.88;;;;;;;;;;5064710;28;20109;-49
2023/01/27 16:38:49;;;;;;;8.32;5.07;;;;;;;;;;5052590;28;20046;-49
2023/01/27 16:41:25;;;;;;;8.07;4.72;;;;;;;;;;5051083;28;20024;-48
2023/01/27 16:43:53;;;;;;;8.40;4.63;;;;;;;;;;5043567;28;20100;-47
2023/01/27 16:46:28;;;;;;;6.40;3.47;;;;;;;;;;5064310;28;20040;-50
2023/01/27 16:48:54;;;;;;;6.03;3.90;;;;;;;;;;5060780;28;20024;-49
2023/01/27 16:51:22;;;;;;;5.72;3.63;;;;;;;;;;5045857;28;20040;-50
2023/01/27 16:53:49;;;;;;;6.05;3.88;;;;;;;;;;5044487;28;20132;-49
2023/01/27 16:56:30;;;;;;;5.70;3.80;;;;;;;;;;5044625;28;20025;-49
2023/01/27 16:59:01;;;;;;;5.70;3.35;;;;;;;;;;5046265;28;20025;-50
2023/01/27 17:01:41;;;;;;;5.72;3.60;;;;;;;;;;5044842;28;20040;-52
2023/01/27 17:04:14;;;;;;;5.68;3.53;;;;;;;;;;5044361;28;20028;-49
2023/01/27 17:06:41;;;;;;;7.63;3.95;;;;;;;;;;5043850;28;20068;-47
2023/01/27 17:09:18;;;;;;;6.13;3.90;;;;;;;;;;5044264;28;20571;-48
2023/01/27 17:11:46;;;;;;;5.93;3.63;;;;;;;;;;5046440;28;20043;-48
2023/01/27 17:14:13;;;;;;;5.78;3.70;;;;;;;;;;5063674;28;20083;-47
2023/01/27 17:16:40;;;;;;;6.10;3.90;;;;;;;;;;5063717;28;20035;-50
2023/01/27 17:19:18;;;;;;;6.93;4.53;;;;;;;;;;5064317;28;20024;-47
2023/01/27 17:21:52;;;;;;;8.07;4.55;;;;;;;;;;5060295;28;20025;-49
2023/01/27 17:24:21;;;;;;;5.78;3.65;;;;;;;;;;5044107;28;20048;-50
2023/01/27 17:26:49;;;;;;;6.65;4.35;;;;;;;;;;5043870;28;20079;-49
2023/01/27 17:29:20;;;;;;;6.63;4.10;;;;;;;;;;5057044;28;20025;-48
2023/01/27 17:31:47;;;;;;;6.10;4.13;;;;;;;;;;5061993;28;20041;-48
2023/01/27 17:34:18;;;;;;;8.38;4.07;;;;;;;;;;5044272;28;20017;-50
2023/01/27 17:37:03;;;;;;;7.97;4.88;;;;;;;;;;5043102;28;20036;-48
2023/01/27 17:39:29;;;;;;;5.93;4.07;;;;;;;;;;5044034;28;20057;-47
2023/01/27 17:41:58;;;;;;;8.05;4.97;;;;;;;;;;5043737;28;20022;-51
2023/01/27 17:44:24;;;;;;;8.00;4.93;;;;;;;;;;5048949;28;20033;-49
2023/01/27 17:46:51;;;;;;;7.80;4.80;;;;;;;;;;5043168;28;20043;-48
2023/01/27 17:49:17;;;;;;;6.25;4.15;;;;;;;;;;5043753;28;20033;-48
2023/01/27 17:51:50;;;;;;;6.65;4.55;;;;;;;;;;5043480;28;20021;-49
2023/01/27 17:54:34;;;;;;;6.25;4.22;;;;;;;;;;5043715;28;20419;-51
2023/01/27 17:56:59;;;;;;;6.55;4.38;;;;;;;;;;5044063;28;20033;-49
2023/01/27 17:59:26;;;;;;;7.32;4.78;;;;;;;;;;5044332;28;20472;-48
2023/01/27 18:01:53;;;;;;;6.97;4.35;;;;;;;;;;5041533;28;20025;-48
2023/01/27 18:04:20;;;;;;;6.38;4.10;;;;;;;;;;5043504;28;20411;-48
2023/01/27 18:06:48;;;;;;;7.40;4.82;;;;;;;;;;5042802;28;20443;-49
2023/01/27 18:09:16;;;;;;;7.00;4.50;;;;;;;;;;5044120;28;20020;-49
2023/01/27 18:11:57;;;;;;;6.70;4.47;;;;;;;;;;5044256;28;20060;-47
2023/01/27 18:14:23;;;;;;;8.02;5.80;;;;;;;;;;5042757;28;20104;-49
2023/01/27 18:17:26;;;;;;;7.00;4.40;;;;;;;;;;5043107;28;20036;-48
2023/01/27 18:19:53;;;;;;;7.93;4.53;;;;;;;;;;5010828;28;20563;-48
2023/01/27 18:22:19;;;;;;;6.22;4.20;;;;;;;;;;5044872;28;20028;-48
2023/01/27 18:24:53;;;;;;;8.32;4.18;;;;;;;;;;5049099;28;20025;-51
2023/01/27 18:27:20;;;;;;;;;;;;;;;;;;5061855;28;20098;-49
2023/01/27 18:29:50;;;;;;;6.88;4.10;;;;;;;;;;5047334;28;19955;-48
2023/01/27 18:32:22;;;;;;;8.43;5.03;;;;;;;;;;5047182;28;20110;-47
2023/01/27 18:34:58;;;;;;;7.60;4.38;;;;;;;;;;5047827;28;20035;-48
2023/01/27 18:37:47;;;;;;;7.45;4.65;;;;;;;;;;5042609;28;20032;-49
2023/01/27 18:40:27;;;;;;;7.57;4.65;;;;;;;;;;5052011;28;20037;-51
2023/01/27 18:42:54;;;;;;;8.55;4.57;;;;;;;;;;5048039;28;20039;-47
2023/01/27 18:45:20;;;;;;;8.77;4.60;;;;;;;;;;5047771;28;20048;-47
2023/01/27 18:47:46;;;;;;;7.35;4.47;;;;;;;;;;5048578;28;20021;-48
2023/01/27 18:50:18;;;;;;;7.22;4.20;;;;;;;;;;5048681;28;20048;-48
2023/01/27 18:52:44;;;;;;;6.03;4.03;;;;;;;;;;5048502;28;20021;-49
2023/01/27 18:55:15;;;;;;;6.70;4.10;;;;;;;;;;5054442;28;20033;-50
2023/01/27 18:57:42;;;;;;;7.07;4.50;;;;;;;;;;5041333;28;20025;-48
2023/01/27 19:00:09;;;;;;;6.50;4.22;;;;;;;;;;5048393;28;20029;-52
2023/01/27 19:02:36;;;;;;;6.47;4.43;;;;;;;;;;5045675;28;20488;-50
2023/01/27 19:05:03;;;;;;;6.93;4.47;;;;;;;;;;5044155;28;20036;-48
2023/01/27 19:07:31;;;;;;;6.70;4.38;;;;;;;;;;5045971;28;20044;-50
2023/01/27 19:09:58;;;;;;;6.45;3.95;;;;;;;;;;5046371;28;20129;-49
2023/01/27 19:12:24;;;;;;;7.03;3.90;;;;;;;;;;5045576;28;20021;-48
2023/01/27 19:14:50;;;;;;;5.85;4.00;;;;;;;;;;5045448;28;20035;-49
2023/01/27 19:17:21;;;;;;;6.10;3.72;;;;;;;;;;5046291;28;20021;-47
2023/01/27 19:19:48;;;;;;;7.63;4.97;;;;;;;;;;5046353;28;20032;-48
2023/01/27 19:22:15;;;;;;;6.55;3.90;;;;;;;;;;5048514;28;20021;-47
2023/01/27 19:24:44;;;;;;;7.15;4.63;;;;;;;;;;5045366;28;20037;-48
2023/01/27 19:27:11;;;;;;;6.07;4.03;;;;;;;;;;5044720;28;20036;-48
2023/01/27 19:29:37;;;;;;;8.40;4.65;;;;;;;;;;5044834;28;20037;-49
2023/01/27 19:32:04;;;;;;;7.80;4.40;;;;;;;;;;5045363;28;20256;-50
2023/01/27 19:34:30;;;;;;;5.57;3.72;;;;;;;;;;5046274;28;20403;-48
2023/01/27 19:36:56;;;;;;;6.13;3.97;;;;;;;;;;5045681;28;20017;-46
2023/01/27 19:39:22;;;;;;;6.85;4.10;;;;;;;;;;5044586;28;20089;-47
2023/01/27 19:41:48;;;;;;;5.20;3.53;;;;;;;;;;5047675;28;20499;-49
2023/01/27 19:44:14;;;;;;;6.68;3.85;;;;;;;;;;5044967;28;20032;-48
2023/01/27 19:46:41;;;;;;;6.78;3.83;;;;;;;;;;5045264;28;20562;-48
2023/01/27 19:49:10;;;;;;;7.10;4.22;;;;;;;;;;5045747;28;20033;-48
2023/01/27 19:51:36;;;;;;;7.00;4.32;;;;;;;;;;5045744;28;20530;-51
2023/01/27 19:54:02;;;;;;;7.35;4.43;;;;;;;;;;5044844;28;20033;-48
2023/01/27 19:56:30;;;;;;;7.07;4.53;;;;;;;;;;5045717;28;20036;-48
2023/01/27 19:58:56;;;;;;;7.60;4.53;;;;;;;;;;5045584;28;20033;-47
2023/01/27 20:01:23;;;;;;;7.32;4.72;;;;;;;;;;5044944;28;20086;-48
2023/01/27 20:03:49;;;;;;;6.65;4.25;;;;;;;;;;5043387;28;20692;-46
2023/01/27 20:06:15;;;;;;;7.88;5.50;;;;;;;;;;5045925;28;20028;-48
2023/01/27 20:08:41;;;;;;;7.80;5.47;;;;;;;;;;5049542;28;20500;-46
2023/01/27 20:11:26;;;;;;;6.75;4.55;;;;;;;;;;5046628;28;20555;-47
2023/01/27 20:13:53;;;;;;;8.25;4.57;;;;;;;;;;5050087;28;20045;-47